Bei Facebook empfehlenBei Twitter postenGoogle plusPinterest

Das Wetter im Erzgebirge am 08.02.2016

Wetter und Klima am 08.02.2016 Holzhau im Erzgebirge (630m ü.NN)
Letzte gemessene Temperatur und Uhrzeit der Messung23:45:00 Uhr1.90 °C
Temperatur (Maximum / Höchstwert) und Uhrzeit der Messung14:30:00 Uhr7.80 °C
Temperatur (Minimum / Tiefstwert) und Uhrzeit der Messung07:15:001.60 °C
Errechneter Absolutwert der Temperaturschwankungen zwischen Tmin und Tmax des Tages6.20 K
Errechnete Tagesmitteltemperatur3.92708 °C
Gesamt - Niederschlag des Tages (in flüssiger Form)2.08 Liter / m²
Luftdruck (Maximum / Höchstwert) und Zeitpunkt der Messung01:00:00 Uhr1004.80 hPa
Luftdruck (Minimum / Tiefstwert) und Zeitpunkt der Messung16:15:00 Uhr995.10 hPa
Errechneter Absolutwert der Luftdruckschwankungen des Tages9.70 hPa
Höchste gemessene Windgeschwindigkeit und Uhrzeit der Messung06:45:00 Uhr183.60 km/h
Errechnete Windhäufigkeit in Relation zu den Messwerten des Tages56.25000 %
Niedrigste Windkühle (Windchill) und Zeitpunkt der Messung06:45:00 Uhr-10.60 °C
Taupunkt (Maximum / Höchstwert) und Uhrzeit der Messung13:30:00 Uhr4.30 °C
Taupunkt (Minimum / Tiefstwert) und Uhrzeit der Messung04:00:000.00 °C
Anzahl der automatisch eingelesenen Messwerte 96

Detaillierte Wetter- und Klima- Messwerte für den 08.02.2016 in Holzhau im Erzgebirge (630m ü.NN)
ZeitTemperaturLuftdruckRel. LuftfeuchteWindWindrichtungWindchillTaupunktNiederschlag l/m²
23:45:001.90 °C997.80 hPa88.00 %0.10 °C2.08
23:30:002.10 °C997.80 hPa88.00 %0.30 °C2.08
23:15:002.20 °C997.80 hPa88.00 %6.12 km/hSSW0.50 °C0.40 °C2.08
23:00:002.40 °C997.70 hPa88.00 %2.88 km/hW2.40 °C0.60 °C2.08
22:45:002.80 °C997.50 hPa89.00 %11.52 km/hWNW-0.30 °C1.20 °C2.08
22:30:003.00 °C997.70 hPa90.00 %8.28 km/hW0.70 °C1.50 °C2.08
22:15:002.80 °C998.00 hPa90.00 %1.80 km/hWNW2.80 °C1.30 °C2.08
22:00:002.60 °C997.60 hPa90.00 %1.10 °C2.08
21:45:002.90 °C997.30 hPa90.00 %1.40 °C2.08
21:30:003.10 °C996.80 hPa90.00 %12.96 km/hSW-0.20 °C1.60 °C2.08
21:15:003.60 °C996.80 hPa90.00 %2.10 °C2.08
21:00:003.80 °C996.90 hPa90.00 %4.32 km/hS3.80 °C2.30 °C2.08
20:45:003.80 °C997.10 hPa90.00 %2.30 °C2.08
20:30:003.80 °C996.80 hPa89.00 %2.20 °C2.08
20:15:003.90 °C997.10 hPa90.00 %2.40 °C2.08
20:00:004.10 °C997.40 hPa89.00 %2.50 °C2.08
19:45:004.10 °C996.90 hPa89.00 %14.04 km/hSSW0.80 °C2.50 °C2.08
19:30:004.40 °C996.60 hPa89.00 %11.52 km/hWSW1.60 °C2.80 °C2.08
19:15:004.60 °C997.40 hPa88.00 %10.80 km/hW2.00 °C2.80 °C2.08
19:00:004.60 °C997.20 hPa88.00 %5.76 km/hSW3.30 °C2.80 °C2.08
18:45:004.50 °C996.80 hPa88.00 %7.92 km/hSW2.60 °C2.70 °C2.08
18:30:004.80 °C996.40 hPa87.00 %2.80 °C2.08
18:15:004.90 °C996.90 hPa87.00 %2.90 °C2.08
18:00:005.10 °C996.10 hPa85.00 %2.80 °C1.56
17:45:005.30 °C996.30 hPa83.00 %2.70 °C1.56
17:30:006.10 °C996.30 hPa81.00 %2.88 km/hWNW6.10 °C3.10 °C0.52
17:15:007.10 °C996.40 hPa78.00 %12.96 km/hS4.60 °C3.50 °C 
17:00:007.20 °C996.00 hPa77.00 %18.36 km/hWSW4.00 °C3.40 °C 
16:45:007.10 °C995.70 hPa77.00 %2.52 km/hW7.10 °C3.30 °C 
16:30:007.10 °C995.50 hPa77.00 %12.24 km/hSW4.80 °C3.30 °C 
16:15:007.40 °C995.10 hPa77.00 %3.60 °C 
16:00:007.60 °C995.40 hPa77.00 %9.72 km/hS5.80 °C3.80 °C 
15:45:007.60 °C995.20 hPa77.00 %5.76 km/hSSW6.80 °C3.80 °C 
15:30:007.40 °C995.50 hPa77.00 %3.60 °C 
15:15:007.50 °C995.80 hPa77.00 %7.20 km/hS6.30 °C3.70 °C 
15:00:007.50 °C996.20 hPa77.00 %6.12 km/hSO6.60 °C3.70 °C 
14:45:007.60 °C996.30 hPa76.00 %16.92 km/hSW4.70 °C3.60 °C 
14:30:007.80 °C996.30 hPa76.00 %3.80 °C 
14:15:007.80 °C996.50 hPa77.00 %19.44 km/hSSW4.70 °C4.00 °C 
14:00:007.40 °C996.90 hPa78.00 %16.20 km/hSW4.50 °C3.80 °C 
13:45:007.40 °C996.90 hPa78.00 %2.16 km/hWSW7.40 °C3.80 °C 
13:30:007.70 °C996.90 hPa79.00 %6.48 km/hS6.70 °C4.30 °C 
13:15:007.30 °C996.90 hPa80.00 %11.88 km/hSW5.10 °C4.10 °C 
13:00:006.60 °C996.80 hPa82.00 %16.92 km/hSSW3.50 °C3.80 °C 
12:45:005.90 °C997.30 hPa82.00 %3.10 °C 
12:30:005.60 °C997.80 hPa83.00 %5.40 km/hSSO4.60 °C2.90 °C 
12:15:005.30 °C998.10 hPa84.00 %9.72 km/hSSW3.10 °C2.80 °C 
12:00:004.80 °C998.20 hPa85.00 %5.76 km/hSSO3.60 °C2.50 °C 
11:45:004.40 °C998.40 hPa85.00 %14.04 km/hS1.20 °C2.10 °C 
11:30:003.90 °C998.50 hPa86.00 %5.76 km/hOSO2.50 °C1.80 °C 
11:15:003.80 °C999.10 hPa87.00 %1.80 °C 
11:00:003.60 °C999.20 hPa88.00 %13.32 km/hSO0.30 °C1.80 °C 
10:45:003.60 °C999.60 hPa89.00 %2.00 °C 
10:30:003.30 °C999.30 hPa89.00 %3.24 km/hOSO3.30 °C1.70 °C 
10:15:003.10 °C999.60 hPa90.00 %3.60 km/hNNO3.10 °C1.60 °C 
10:00:002.90 °C999.90 hPa90.00 %1.40 °C 
09:45:002.60 °C1000.40 hPa91.00 %1.30 °C 
09:30:002.50 °C1000.30 hPa90.00 %8.28 km/hO0.10 °C1.00 °C 
09:15:002.50 °C1000.60 hPa90.00 %1.00 °C 
09:00:002.40 °C1000.70 hPa91.00 %1.10 °C 
08:45:002.40 °C1000.70 hPa91.00 %1.10 °C 
08:30:002.10 °C1000.80 hPa91.00 %12.60 km/hSSW-1.40 °C0.80 °C 
08:15:001.90 °C1001.10 hPa91.00 %0.60 °C 
08:00:001.90 °C1001.30 hPa91.00 %5.04 km/hS0.50 °C0.60 °C 
07:45:001.80 °C1001.30 hPa91.00 %0.50 °C 
07:30:001.80 °C1001.50 hPa90.00 %4.68 km/hSSW1.80 °C0.30 °C 
07:15:001.60 °C1001.70 hPa90.00 %10.44 km/hSW-1.50 °C0.10 °C 
07:00:001.60 °C1001.80 hPa90.00 %0.10 °C 
06:45:001.60 °C1001.80 hPa90.00 %183.60 km/hSO-10.60 °C0.10 °C 
06:30:001.60 °C1002.30 hPa90.00 %6.12 km/hSSO-0.20 °C0.10 °C 
06:15:001.90 °C1002.30 hPa89.00 %0.30 °C 
06:00:001.90 °C1002.60 hPa90.00 %3.96 km/hS1.90 °C0.40 °C 
05:45:001.80 °C1002.90 hPa90.00 %0.30 °C 
05:30:001.80 °C1003.20 hPa89.00 %1.44 km/hSSO1.80 °C0.20 °C 
05:15:001.90 °C1003.10 hPa89.00 %0.30 °C 
05:00:001.90 °C1003.20 hPa89.00 %5.04 km/hSSO0.50 °C0.30 °C 
04:45:001.90 °C1003.10 hPa89.00 %5.40 km/hS0.40 °C0.30 °C 
04:30:002.10 °C1003.10 hPa88.00 %7.92 km/hSO-0.20 °C0.30 °C 
04:15:001.90 °C1003.20 hPa88.00 %6.48 km/hSW0.00 °C0.10 °C 
04:00:001.80 °C1003.40 hPa88.00 %6.48 km/hSW-0.10 °C0.00 °C 
03:45:001.90 °C1003.40 hPa87.00 %0.00 °C 
03:30:002.20 °C1003.40 hPa87.00 %4.68 km/hSSO2.20 °C0.30 °C 
03:15:002.40 °C1003.50 hPa87.00 %5.04 km/hSSW1.10 °C0.50 °C 
03:00:002.80 °C1004.00 hPa86.00 %5.76 km/hWSW1.30 °C0.70 °C 
02:45:002.90 °C1003.90 hPa87.00 %12.60 km/hWSW-0.40 °C1.00 °C 
02:30:002.90 °C1004.20 hPa87.00 %1.00 °C 
02:15:003.00 °C1004.20 hPa87.00 %1.10 °C 
02:00:003.10 °C1004.30 hPa87.00 %1.20 °C 
01:45:003.20 °C1004.40 hPa87.00 %1.30 °C 
01:30:003.20 °C1004.40 hPa87.00 %1.30 °C 
01:15:003.30 °C1004.70 hPa87.00 %1.30 °C 
01:00:003.40 °C1004.80 hPa87.00 %1.40 °C 
00:45:003.60 °C1004.60 hPa87.00 %1.60 °C 
00:30:003.80 °C1004.70 hPa87.00 %1.80 °C 
00:15:003.80 °C1004.60 hPa88.00 %2.00 °C 
00:00:003.80 °C1004.50 hPa88.00 %2.00 °C 

Permanenter Link zu dieser Seite: Wetter im Erzgebirge am 08.02.2016
Performance-Info: Die Erstellung der Seite / Statistik(en) / Tabelle(n) erforderte 5 Datenbankserver-Abfrage(n) und dauerte 103 Millisekunden. (Dieser Messwert ist von der Gesamt-Auslastung des Servers abhängig.)
Erzgebirge - Wetter | Erzgebirge - Wetter (Mobilgeräte) | Komplette Klimadatenbank